createdAt,value
2018-04-24T00:04:28.037Z,21.77
2018-04-24T00:09:31.643Z,25.00
2018-04-24T00:14:34.824Z,18.30
2018-04-24T00:19:37.673Z,17.30
2018-04-24T00:24:40.509Z,23.93
2018-04-24T00:29:44.361Z,15.03
2018-04-24T00:34:47.178Z,22.30
2018-04-24T00:39:50.499Z,13.40
2018-04-24T00:44:54.012Z,24.93
2018-04-24T00:49:56.807Z,24.97
2018-04-24T00:54:59.759Z,24.50
2018-04-24T01:00:03.501Z,9.60
2018-04-24T01:05:06.577Z,26.00
2018-04-24T01:10:09.774Z,18.53
2018-04-24T01:15:12.578Z,19.53
2018-04-24T01:20:16.582Z,25.33
2018-04-24T01:25:19.641Z,20.47
2018-04-24T01:30:22.519Z,17.67
2018-04-24T01:35:25.329Z,13.90
2018-04-24T01:40:29.547Z,21.53
2018-04-24T01:45:32.695Z,27.23
2018-04-24T01:50:35.464Z,22.63
2018-04-24T01:55:38.291Z,23.20
2018-04-24T02:00:42.482Z,29.27
2018-04-24T02:05:46.036Z,26.73
2018-04-24T02:10:48.981Z,18.03
2018-04-24T02:15:52.262Z,13.43
2018-04-24T02:20:55.225Z,14.90
2018-04-24T02:25:58.033Z,17.70
2018-04-24T02:31:01.265Z,19.30
2018-04-24T02:36:04.276Z,34.60
2018-04-24T02:41:07.445Z,31.50
2018-04-24T02:46:11.293Z,25.70
2018-04-24T02:51:15.052Z,44.63
2018-04-24T02:56:18.425Z,39.30
2018-04-24T03:01:21.765Z,37.83
2018-04-24T03:06:25.681Z,36.53
2018-04-24T03:11:28.571Z,38.37
2018-04-24T03:16:31.606Z,42.77
2018-04-24T03:21:34.399Z,39.13
2018-04-24T03:26:38.287Z,42.07
2018-04-24T03:31:41.599Z,46.33
2018-04-24T03:36:44.449Z,48.13
2018-04-24T03:41:47.956Z,47.97
2018-04-24T03:46:51.990Z,41.57
2018-04-24T03:51:54.951Z,46.30
2018-04-24T03:56:58.128Z,40.23
2018-04-24T04:02:01.439Z,61.40
2018-04-24T04:07:04.970Z,53.17
2018-04-24T04:12:08.601Z,44.10
2018-04-24T04:17:21.361Z,48.07
2018-04-24T04:24:35.795Z,42.87
2018-04-24T04:29:38.592Z,47.57
2018-04-24T04:34:41.410Z,55.47
2018-04-24T04:39:44.820Z,53.80
2018-04-24T04:44:47.688Z,52.43
2018-04-24T04:49:51.078Z,57.43
2018-04-24T04:54:54.601Z,45.37
2018-04-24T04:59:57.545Z,54.13
2018-04-24T05:05:01.383Z,42.67
2018-04-24T05:10:04.423Z,61.77
2018-04-24T05:15:07.209Z,66.07
2018-04-24T05:20:10.613Z,62.67
2018-04-24T05:25:13.728Z,37.70
2018-04-24T05:30:19.891Z,69.43
2018-04-24T05:35:23.362Z,47.43
2018-04-24T05:40:26.119Z,54.73
2018-04-24T05:45:28.868Z,49.23
2018-04-24T05:50:31.810Z,67.87
2018-04-24T05:55:34.888Z,76.60
2018-04-24T06:00:37.703Z,72.37
2018-04-24T06:05:40.844Z,75.97
2018-04-24T06:10:43.619Z,54.97
2018-04-24T06:15:46.504Z,60.00
2018-04-24T06:20:49.463Z,74.63
2018-04-24T06:25:52.520Z,58.07
2018-04-24T06:30:55.324Z,69.53
2018-04-24T06:35:58.134Z,80.93
2018-04-24T06:41:00.938Z,95.67
2018-04-24T06:46:03.768Z,72.93
2018-04-24T06:51:07.215Z,92.50
2018-04-24T06:56:10.286Z,95.67
2018-04-24T07:01:13.128Z,85.37
2018-04-24T07:06:16.139Z,69.43
2018-04-24T07:11:18.928Z,83.83
2018-04-24T07:16:21.745Z,78.67
2018-04-24T07:21:24.960Z,73.40
2018-04-24T07:26:28.002Z,86.57
2018-04-24T07:31:30.752Z,60.60
2018-04-24T07:36:33.647Z,66.97
2018-04-24T07:41:36.412Z,88.70
2018-04-24T07:46:39.497Z,49.87
2018-04-24T07:51:42.480Z,68.33
2018-04-24T07:56:49.148Z,68.37
2018-04-24T08:01:52.581Z,69.03
2018-04-24T08:06:55.696Z,78.00
2018-04-24T08:11:58.479Z,69.63
2018-04-24T08:17:01.616Z,72.27
2018-04-24T08:22:04.540Z,59.93
2018-04-24T08:27:07.355Z,56.30
2018-04-24T08:32:10.247Z,57.17
2018-04-24T08:37:13.046Z,69.47
2018-04-24T08:42:15.839Z,54.07
2018-04-24T08:47:18.936Z,80.80
2018-04-24T08:52:21.964Z,45.00
2018-04-24T08:57:25.186Z,63.93
2018-04-24T09:02:27.959Z,48.43
2018-04-24T09:07:30.788Z,60.57
2018-04-24T09:12:33.575Z,39.53
2018-04-24T09:17:36.673Z,27.10
2018-04-24T09:22:39.591Z,45.20
2018-04-24T09:27:42.380Z,47.90
2018-04-24T09:32:45.207Z,40.80
2018-04-24T09:37:48.051Z,50.17
2018-04-24T09:42:50.872Z,23.80
2018-04-24T09:47:53.995Z,34.03
2018-04-24T09:52:57.084Z,36.33
2018-04-24T09:58:00.069Z,22.53
2018-04-24T10:03:02.894Z,20.83
2018-04-24T10:08:05.868Z,30.33
2018-04-24T10:13:09.081Z,22.07
2018-04-24T10:18:13.520Z,19.97
2018-04-24T10:23:16.534Z,26.47
2018-04-24T10:28:19.360Z,26.00
2018-04-24T10:33:22.164Z,43.93
2018-04-24T10:38:25.277Z,26.13
2018-04-24T10:43:28.060Z,30.30
2018-04-24T10:48:30.862Z,24.60
2018-04-24T10:53:34.042Z,30.10
2018-04-24T10:58:36.884Z,53.03
2018-04-24T11:03:39.699Z,27.87
2018-04-24T11:08:43.239Z,20.17
2018-04-24T11:13:46.610Z,23.63
2018-04-24T11:18:49.398Z,22.13
2018-04-24T11:23:52.477Z,36.63
2018-04-24T11:28:59.407Z,30.50
2018-04-24T11:34:02.929Z,30.93
2018-04-24T11:39:06.442Z,26.63
2018-04-24T11:44:09.440Z,24.87
2018-04-24T11:49:12.292Z,18.80
2018-04-24T11:54:15.258Z,21.47
2018-04-24T11:59:18.100Z,27.87
2018-04-24T12:04:25.292Z,24.57
2018-04-24T12:09:29.227Z,17.63
2018-04-24T12:14:32.557Z,24.40
2018-04-24T12:19:35.459Z,28.50
2018-04-24T12:24:38.714Z,17.20
2018-04-24T12:29:41.549Z,11.90
2018-04-24T12:34:44.407Z,21.03
2018-04-24T12:39:47.459Z,20.60
2018-04-24T12:44:50.609Z,15.13
2018-04-24T12:49:53.489Z,20.40
2018-04-24T12:54:56.558Z,20.40
2018-04-24T12:59:59.433Z,29.13
2018-04-24T13:05:02.257Z,20.57
2018-04-24T13:10:05.160Z,18.70
2018-04-24T13:15:08.254Z,25.77
2018-04-24T13:20:11.203Z,19.40
2018-04-24T13:25:14.239Z,24.77
2018-04-24T13:30:17.103Z,32.77
2018-04-24T13:35:19.982Z,19.60
2018-04-24T13:40:23.145Z,19.73
2018-04-24T13:45:26.362Z,25.40
2018-04-24T13:50:29.425Z,24.80
2018-04-24T13:55:32.674Z,23.57
2018-04-24T14:00:35.544Z,23.57
2018-04-24T14:05:38.544Z,24.03
2018-04-24T14:10:41.607Z,34.73
2018-04-24T14:15:44.571Z,28.33
2018-04-24T14:20:47.765Z,19.93
2018-04-24T14:25:51.062Z,27.60
2018-04-24T14:30:54.034Z,24.23
2018-04-24T14:35:57.023Z,28.33
2018-04-24T14:41:00.029Z,23.73
2018-04-24T14:46:03.001Z,28.73
2018-04-24T14:51:09.611Z,24.90
2018-04-24T14:56:13.469Z,15.73
2018-04-24T15:01:16.504Z,16.70
2018-04-24T15:06:19.667Z,26.70
2018-04-24T15:11:22.766Z,31.03
2018-04-24T15:16:25.799Z,17.63
2018-04-24T15:21:29.103Z,22.10
2018-04-24T15:26:32.237Z,34.60
2018-04-24T15:31:35.310Z,30.53
2018-04-24T15:36:38.304Z,16.83
2018-04-24T15:41:41.383Z,20.03
2018-04-24T15:46:44.423Z,21.93
2018-04-24T15:51:48.017Z,31.60
2018-04-24T15:56:51.345Z,21.80
2018-04-24T16:01:55.411Z,33.10
2018-04-24T16:06:59.148Z,24.53
2018-04-24T16:12:04.144Z,36.87
2018-04-24T16:17:07.487Z,26.60
2018-04-24T16:22:11.984Z,38.07
2018-04-24T16:27:15.740Z,32.57
2018-04-24T16:32:22.525Z,31.40
2018-04-24T16:37:26.393Z,31.13
2018-04-24T16:42:30.144Z,38.20
2018-04-24T16:47:33.526Z,27.17
2018-04-24T16:52:36.983Z,29.83
2018-04-24T16:57:41.985Z,27.37
2018-04-24T17:02:50.829Z,27.07
2018-04-24T17:07:54.528Z,27.27
2018-04-24T17:12:58.758Z,28.93
2018-04-24T17:18:02.550Z,23.10
2018-04-24T17:23:07.577Z,30.03
2018-04-24T17:28:11.356Z,35.67
2018-04-24T17:33:15.337Z,32.00
2018-04-24T17:38:20.420Z,45.00
2018-04-24T17:43:24.578Z,36.03
2018-04-24T17:48:29.939Z,38.03
2018-04-24T17:53:33.886Z,44.37
2018-04-24T17:59:51.604Z,31.03
2018-04-24T18:04:56.569Z,29.87
2018-04-24T18:15:35.459Z,41.20
2018-04-24T18:20:39.587Z,32.97
2018-04-24T18:25:47.848Z,26.50
2018-04-24T18:30:54.063Z,26.53
2018-04-24T18:35:58.892Z,37.60
2018-04-24T18:41:05.235Z,35.50
2018-04-24T18:46:11.805Z,29.53
2018-04-24T18:51:16.653Z,42.03
2018-04-24T18:56:21.535Z,34.73
2018-04-24T19:01:30.390Z,33.63
2018-04-24T19:06:48.412Z,36.60
2018-04-24T19:11:53.822Z,44.97
2018-04-24T19:16:59.152Z,44.37
2018-04-24T19:22:05.548Z,39.37
2018-04-24T19:27:10.007Z,37.03
2018-04-24T19:32:44.679Z,22.37
2018-04-24T19:37:48.336Z,47.77
2018-04-24T19:42:52.502Z,45.13
2018-04-24T19:47:56.313Z,53.93
2018-04-24T19:53:00.415Z,52.07
2018-04-24T19:58:04.578Z,69.17
2018-04-24T20:03:08.865Z,44.83
2018-04-24T20:08:13.124Z,48.37
2018-04-24T20:13:18.946Z,44.90
2018-04-24T20:18:23.952Z,39.07
2018-04-24T20:23:27.434Z,39.20
2018-04-24T20:28:31.330Z,47.87
2018-04-24T20:33:35.211Z,49.90
2018-04-24T20:38:38.602Z,44.70
2018-04-24T20:43:42.157Z,49.63
2018-04-24T20:48:47.137Z,44.37
2018-04-24T20:53:50.517Z,31.83
2018-04-24T20:58:53.723Z,30.57
2018-04-24T21:03:56.944Z,36.90
2018-04-24T21:09:00.441Z,28.17
2018-04-24T21:14:04.607Z,35.90
2018-04-24T21:19:08.962Z,22.40
2018-04-24T21:24:12.122Z,44.80
2018-04-24T21:29:15.456Z,40.63
2018-04-24T21:34:18.846Z,43.83
2018-04-24T21:39:22.155Z,28.57
2018-04-24T21:44:25.521Z,20.33
2018-04-24T21:49:28.989Z,43.57
2018-04-24T21:54:32.127Z,33.10
2018-04-24T21:59:35.105Z,34.43
2018-04-24T22:04:38.528Z,24.63
2018-04-24T22:09:41.703Z,21.53
2018-04-24T22:14:45.578Z,21.23
2018-04-24T22:19:49.088Z,21.37
2018-04-24T22:24:52.093Z,31.20
2018-04-24T22:29:55.785Z,21.33
2018-04-24T22:34:59.342Z,14.07
2018-04-24T22:40:02.142Z,22.63
2018-04-24T22:45:06.963Z,21.53
2018-04-24T22:50:10.351Z,20.77
2018-04-24T22:55:13.800Z,23.27
2018-04-24T23:00:18.240Z,11.20
2018-04-24T23:05:22.340Z,10.50
2018-04-24T23:10:36.403Z,13.90
2018-04-24T23:15:50.812Z,10.23
2018-04-24T23:20:52.941Z,6.83
2018-04-24T23:25:57.388Z,7.47
2018-04-24T23:31:00.443Z,7.50
2018-04-24T23:36:03.692Z,10.30
2018-04-24T23:41:06.700Z,12.13
2018-04-24T23:46:10.390Z,8.23
2018-04-24T23:51:13.308Z,9.60
2018-04-24T23:56:17.432Z,10.30
